Florida, Massachusetts
Current Conditions -  °F | °C
As of 7:52 AM on Saturday 22 Nov 2014 (Local Time) from KAQW Reporting Station
Clear Clear  
Wind Chill: 16°   Ceiling: Unl
Heat Index: 16°   Visibility: 10mi
Dew Point: 12°   Wind: 0mph
Humidity: 84%   Direction: NA
Pressure: 30.37"   Gusts: NA
Location:  42.6996°N, 73.0936°W
Report Text: KAQW 221252Z AUTO 00000KT 10SM CLR M09/M11 A3037 RMK AO2 SLP296 T10891111
Loading
Personal Weather Stations






























Interactive Weather Map New forecast layout! Learn more

10-Day Weather Forecast

Advertisements
Track Severe Weather on mobile